KF5JED-13 Weather Reports


Display with metric or nautical units.
time (UTC)temp
F
wind
direction
speed
MPH
gust
MPH
rain 1hr
in
rain 24hr
in
rain mn
in
humidity
%
barometer
mb
20240520054008 62 167 3.0 6.0 0.00 0.00 0.00 35 1008.9
20240520053508 60 167 3.0 4.0 0.00 0.00 0.00 39 1008.9
20240520053007 61 148 4.0 5.0 0.00 0.00 0.00 36 1008.9
20240520052505 62 139 4.0 5.0 0.00 0.00 0.00 34 1009.1
20240520052008 61 144 5.0 5.0 0.00 0.00 0.00 35 1009.0
20240520051503 62 157 3.0 4.0 0.00 0.00 0.00 35 1009.0
20240520051002 62 158 3.0 4.0 0.00 0.00 0.00 33 1008.9
20240520050501 62 153 3.0 3.0 0.00 0.00 0.00 34 1009.0
20240520045959 62 149 3.0 4.0 0.00 0.00 0.00 35 1009.2
20240520045458 62 138 4.0 4.0 0.00 0.00 0.00 35 1009.0
20240520044957 62 147 4.0 4.0 0.00 0.00 0.00 35 1009.1
20240520044456 62 145 5.0 5.0 0.00 0.00 0.00 36 1008.8
20240520043954 62 148 3.0 3.0 0.00 0.00 0.00 36 1009.0
20240520043453 63 150 3.0 4.0 0.00 0.00 0.00 35 1008.9
20240520042952 64 157 4.0 4.0 0.00 0.00 0.00 34 1008.8
20240520042451 65 143 4.0 4.0 0.00 0.00 0.00 33 1008.7
20240520041950 65 141 3.0 4.0 0.00 0.00 0.00 32 1008.3
20240520041448 64 155 4.0 4.0 0.00 0.00 0.00 33 1008.7
20240520040946 65 154 4.0 5.0 0.00 0.00 0.00 33 1008.3
20240520040445 68 145 4.0 4.0 0.00 0.00 0.00 28 1008.4
20240520035944 70 153 3.0 3.0 0.00 0.00 0.00 28 1008.4
20240520035444 73 171 2.0 2.0 0.00 0.00 0.00 24 1008.4
20240520034942 73 205 0.0 2.0 0.00 0.00 0.00 22 1008.6
20240520034441 74 202 1.0 2.0 0.00 0.00 0.00 22 1008.7
20240520033940 73 173 0.0 2.0 0.00 0.00 0.00 22 1008.6
20240520033440 73 269 0.0 0.0 0.00 0.00 0.00 22 1008.3
20240520032938 75 180 0.0 2.0 0.00 0.00 0.00 21 1008.3
20240520032438 75 296 2.0 3.0 0.00 0.00 0.00 21 1008.3
20240520031937 76 287 0.0 3.0 0.00 0.00 0.00 21 1008.2
20240520031433 77 211 0.0 3.0 0.00 0.00 0.00 21 1008.4
20240520030931 77 261 2.0 3.0 0.00 0.00 0.00 20 1008.4
20240520030431 78 209 0.0 3.0 0.00 0.00 0.00 21 1008.4
20240520025930 79 317 2.0 4.0 0.00 0.00 0.00 20 1008.2
20240520025426 79 297 2.0 3.0 0.00 0.00 0.00 20 1008.4
20240520024926 80 304 2.0 3.0 0.00 0.00 0.00 19 1008.3
20240520024425 80 298 2.0 2.0 0.00 0.00 0.00 19 1008.1
20240520023924 81 231 0.0 2.0 0.00 0.00 0.00 19 1008.1
20240520023423 82 336 1.0 4.0 0.00 0.00 0.00 19 1008.1
20240520022920 83 265 0.0 4.0 0.00 0.00 0.00 18 1007.9
20240520022420 85 235 3.0 5.0 0.00 0.00 0.00 17 1007.7
20240520021919 85 297 5.0 5.0 0.00 0.00 0.00 16 1007.6
20240520021418 84 285 2.0 6.0 0.00 0.00 0.00 17 1007.7
20240520020917 84 278 3.0 9.0 0.00 0.00 0.00 17 1007.4
20240520020416 82 320 2.0 4.0 0.00 0.00 0.00 23 1007.7
20240520015914 80 282 2.0 4.0 0.00 0.00 0.00 23 1007.2
20240520015413 78 197 1.0 3.0 0.00 0.00 0.00 26 1006.8
20240520014910 78 157 4.0 4.0 0.00 0.00 0.00 27 1006.8
20240520014409 78 162 3.0 4.0 0.00 0.00 0.00 26 1006.9
20240520013907 79 164 3.0 3.0 0.00 0.00 0.00 28 1006.7
20240520013407 81 171 3.0 4.0 0.00 0.00 0.00 25 1006.9
20240520012904 82 168 3.0 3.0 0.00 0.00 0.00 26 1006.9
20240520012403 84 164 4.0 4.0 0.00 0.00 0.00 24 1006.8
20240520011902 86 202 6.0 7.0 0.00 0.00 0.00 20 1006.9
20240520011401 86 211 7.0 8.0 0.00 0.00 0.00 20 1006.9
20240520010859 87 183 4.0 6.0 0.00 0.00 0.00 21 1006.9
20240520010359 88 207 7.0 9.0 0.00 0.00 0.00 19 1006.9
20240520005858 89 217 8.0 10.0 0.00 0.00 0.00 17 1006.8
20240520005356 90 204 6.0 12.0 0.00 0.00 0.00 18 1007.1
20240520004855 90 216 6.0 9.0 0.00 0.00 0.00 17 1006.8
20240520004355 90 219 9.0 11.0 0.00 0.00 0.00 17 1006.9
20240520003854 91 232 8.0 12.0 0.00 0.00 0.00 15 1007.0
20240520003354 92 226 11.0 18.0 0.00 0.00 0.00 15 1007.1
20240520002853 92 229 6.0 17.0 0.00 0.00 0.00 15 1007.2
20240520002351 92 229 8.0 21.0 0.00 0.00 0.00 15 1007.3
20240520001848 92 216 8.0 13.0 0.00 0.00 0.00 15 1007.2
20240520001347 92 216 9.0 18.0 0.00 0.00 0.00 15 1007.0
20240520000847 92 224 12.0 21.0 0.00 0.00 0.00 15 1007.1
20240520000344 92 213 13.0 19.0 0.00 0.00 0.00 14 1007.1
20240519235844 93 210 17.0 27.0 0.00 0.00 0.00 14 1007.1
20240519235342 93 216 9.0 18.0 0.00 0.00 0.00 15 1007.4
20240519234840 92 209 11.0 17.0 0.00 0.00 0.00 15 1007.3
20240519234338 93 198 10.0 14.0 0.00 0.00 0.00 17 1007.3
20240519233837 92 215 21.0 23.0 0.00 0.00 0.00 15 1007.4
20240519233335 92 204 15.0 26.0 0.00 0.00 0.00 16 1007.4
20240519232834 92 208 10.0 14.0 0.00 0.00 0.00 17 1007.4
20240519232333 91 207 12.0 19.0 0.00 0.00 0.00 15 1007.7
20240519231832 93 213 17.0 25.0 0.00 0.00 0.00 16 1007.8
20240519231332 92 221 9.0 21.0 0.00 0.00 0.00 16 1008.0
20240519230832 93 216 16.0 23.0 0.00 0.00 0.00 16 1008.0
20240519230331 93 209 14.0 21.0 0.00 0.00 0.00 16 1007.8
20240519225830 91 211 14.0 17.0 0.00 0.00 0.00 16 1008.0
20240519225328 92 217 16.0 22.0 0.00 0.00 0.00 16 1008.2
20240519224827 92 233 13.0 22.0 0.00 0.00 0.00 15 1008.2
20240519224327 91 231 14.0 14.0 0.00 0.00 0.00 16 1008.2
20240519223827 91 208 13.0 19.0 0.00 0.00 0.00 16 1008.1
20240519223326 94 212 16.0 24.0 0.00 0.00 0.00 16 1008.2
20240519222825 93 216 18.0 21.0 0.00 0.00 0.00 16 1008.2
20240519222323 91 200 17.0 22.0 0.00 0.00 0.00 17 1008.3
20240519221821 91 211 15.0 19.0 0.00 0.00 0.00 16 1008.3
20240519221321 91 211 15.0 19.0 0.00 0.00 0.00 16 1008.7
20240519220819 91 211 15.0 19.0 0.00 0.00 0.00 16 1008.7
20240519220318 91 211 15.0 19.0 0.00 0.00 0.00 16 1008.7
20240519215817 91 211 15.0 19.0 0.00 0.00 0.00 16 1008.8
20240519215314 91 211 15.0 19.0 0.00 0.00 0.00 16 1008.8
20240519214813 91 211 15.0 19.0 0.00 0.00 0.00 16 1008.8
20240519214310 91 213 14.0 21.0 0.00 0.00 0.00 17 1008.9
20240519213808 91 209 16.0 21.0 0.00 0.00 0.00 17 1009.0
20240519213308 91 212 13.0 24.0 0.00 0.00 0.00 17 1008.9
20240519212805 92 213 16.0 29.0 0.00 0.00 0.00 17 1009.0
20240519212305 92 230 16.0 19.0 0.00 0.00 0.00 17 1009.1
20240519211805 92 209 15.0 23.0 0.00 0.00 0.00 16 1009.3
20240519211304 91 208 12.0 22.0 0.00 0.00 0.00 16 1009.3
20240519210802 92 231 19.0 24.0 0.00 0.00 0.00 15 1009.4
20240519210301 91 214 12.0 21.0 0.00 0.00 0.00 17 1009.4
20240519205800 91 219 15.0 25.0 0.00 0.00 0.00 16 1009.7
20240519205258 92 215 26.0 31.0 0.00 0.00 0.00 16 1009.7
20240519204756 92 214 18.0 29.0 0.00 0.00 0.00 16 1009.7
20240519204255 91 206 18.0 28.0 0.00 0.00 0.00 17 1009.9
20240519203754 91 205 14.0 19.0 0.00 0.00 0.00 17 1009.7
20240519203254 91 209 11.0 30.0 0.00 0.00 0.00 19 1009.9
20240519202753 93 206 13.0 25.0 0.00 0.00 0.00 18 1009.8
20240519202253 93 209 18.0 23.0 0.00 0.00 0.00 15 1009.9
20240519201752 92 214 17.0 18.0 0.00 0.00 0.00 18 1010.1
20240519201249 92 211 24.0 34.0 0.00 0.00 0.00 17 1010.1
20240519200748 92 217 19.0 32.0 0.00 0.00 0.00 16 1010.2
20240519200247 91 215 15.0 24.0 0.00 0.00 0.00 17 1010.3
20240519195746 92 211 17.0 26.0 0.00 0.00 0.00 17 1010.3
20240519195243 92 214 22.0 29.0 0.00 0.00 0.00 16 1010.2
20240519194744 90 203 14.0 26.0 0.00 0.00 0.00 18 1010.3
20240519194243 90 205 18.0 23.0 0.00 0.00 0.00 18 1010.4
20240519193741 91 221 13.0 28.0 0.00 0.00 0.00 18 1010.3
20240519193240 91 228 19.0 23.0 0.00 0.00 0.00 18 1010.3
20240519192739 91 201 14.0 19.0 0.00 0.00 0.00 17 1010.6
20240519192238 90 196 9.0 18.0 0.00 0.00 0.00 21 1010.8
20240519191738 90 209 12.0 22.0 0.00 0.00 0.00 18 1010.8
20240519191236 92 220 20.0 23.0 0.00 0.00 0.00 17 1011.0
20240519190735 90 207 19.0 33.0 0.00 0.00 0.00 18 1011.0
20240519190234 92 201 22.0 32.0 0.00 0.00 0.00 17 1011.0
20240519185733 94 222 11.0 21.0 0.00 0.00 0.00 18 1010.9
20240519185231 93 214 25.0 30.0 0.00 0.00 0.00 16 1010.9
20240519184731 92 198 22.0 29.0 0.00 0.00 0.00 16 1011.0
20240519184230 93 206 19.0 28.0 0.00 0.00 0.00 16 1011.1
20240519183729 91 214 13.0 17.0 0.00 0.00 0.00 18 1011.2
20240519183229 93 232 19.0 23.0 0.00 0.00 0.00 16 1011.3
20240519182727 93 211 11.0 19.0 0.00 0.00 0.00 18 1011.2
20240519182226 91 211 12.0 18.0 0.00 0.00 0.00 18 1011.6
20240519181725 92 212 14.0 20.0 0.00 0.00 0.00 19 1011.7
20240519181225 92 212 16.0 18.0 0.00 0.00 0.00 18 1011.7
20240519180724 92 210 11.0 15.0 0.00 0.00 0.00 19 1011.9
20240519180224 91 201 15.0 19.0 0.00 0.00 0.00 19 1011.7
20240519175722 91 218 11.0 17.0 0.00 0.00 0.00 20 1011.9
20240519175220 90 223 11.0 17.0 0.00 0.00 0.00 21 1012.0
20240519174718 90 210 13.0 24.0 0.00 0.00 0.00 21 1012.1
20240519174217 91 207 14.0 22.0 0.00 0.00 0.00 21 1012.1
20240519173716 91 176 11.0 16.0 0.00 0.00 0.00 22 1012.3
20240519173216 90 217 10.0 19.0 0.00 0.00 0.00 21 1012.2
20240519172714 89 211 13.0 18.0 0.00 0.00 0.00 22 1012.1
20240519172214 90 206 19.0 19.0 0.00 0.00 0.00 21 1012.5
20240519171713 89 216 10.0 20.0 0.00 0.00 0.00 23 1012.2
20240519171213 89 210 15.0 21.0 0.00 0.00 0.00 23 1012.3
20240519170712 89 209 16.0 23.0 0.00 0.00 0.00 21 1012.3
20240519170210 89 210 12.0 17.0 0.00 0.00 0.00 23 1012.6
20240519165709 88 214 6.0 19.0 0.00 0.00 0.00 23 1012.6
20240519165208 88 212 14.0 20.0 0.00 0.00 0.00 23 1012.6
20240519164707 87 207 13.0 19.0 0.00 0.00 0.00 23 1012.3
20240519164205 87 217 13.0 19.0 0.00 0.00 0.00 25 1012.5
20240519163703 87 213 15.0 17.0 0.00 0.00 0.00 22 1012.3
20240519163203 87 217 10.0 15.0 0.00 0.00 0.00 25 1012.6
20240519162703 86 218 14.0 16.0 0.00 0.00 0.00 26 1012.5
20240519162201 86 210 15.0 17.0 0.00 0.00 0.00 24 1012.6
20240519161659 85 218 11.0 17.0 0.00 0.00 0.00 25 1012.7
20240519161159 86 208 10.0 16.0 0.00 0.00 0.00 25 1012.7
20240519160659 84 212 9.0 17.0 0.00 0.00 0.00 25 1012.8
20240519160157 84 215 11.0 17.0 0.00 0.00 0.00 26 1012.7
20240519155657 84 233 9.0 16.0 0.00 0.00 0.00 26 1012.9
20240519155157 84 203 9.0 16.0 0.00 0.00 0.00 28 1012.7
20240519154656 83 205 9.0 18.0 0.00 0.00 0.00 28 1013.0
20240519154155 83 228 8.0 15.0 0.00 0.00 0.00 28 1012.9
20240519153655 83 214 14.0 18.0 0.00 0.00 0.00 27 1012.9
20240519153154 83 202 13.0 14.0 0.00 0.00 0.00 29 1013.0
20240519152652 82 218 13.0 19.0 0.00 0.00 0.00 27 1013.1
20240519152150 82 209 13.0 16.0 0.00 0.00 0.00 28 1013.1
20240519151650 83 223 7.0 16.0 0.00 0.00 0.00 28 1013.0
20240519151149 82 220 8.0 11.0 0.00 0.00 0.00 31 1013.1
20240519150647 81 230 8.0 14.0 0.00 0.00 0.00 30 1013.2
20240519150146 79 213 11.0 12.0 0.00 0.00 0.00 31 1013.1
20240519145645 79 215 10.0 13.0 0.00 0.00 0.00 33 1013.3
20240519145143 78 220 8.0 14.0 0.00 0.00 0.00 35 1013.3
20240519144641 77 210 13.0 14.0 0.00 0.00 0.00 35 1013.2
20240519144140 76 194 6.0 15.0 0.00 0.00 0.00 40 1013.2
20240519143638 75 207 9.0 16.0 0.00 0.00 0.00 41 1013.5
20240519143137 75 200 9.0 12.0 0.00 0.00 0.00 42 1013.2
20240519142636 74 212 10.0 11.0 0.00 0.00 0.00 43 1013.2
20240519142135 73 235 15.0 16.0 0.00 0.00 0.00 44 1013.3
20240519141634 71 203 11.0 16.0 0.00 0.00 0.00 51 1013.2
20240519141134 71 207 9.0 16.0 0.00 0.00 0.00 54 1013.2
20240519140632 70 203 11.0 17.0 0.00 0.00 0.00 55 1013.0
20240519140132 69 213 13.0 19.0 0.00 0.00 0.00 56 1013.1
20240519135631 69 204 9.0 16.0 0.00 0.00 0.00 59 1013.2
20240519135130 68 198 11.0 16.0 0.00 0.00 0.00 59 1013.2
20240519134629 67 209 10.0 19.0 0.00 0.00 0.00 63 1013.1
20240519134129 67 192 11.0 15.0 0.00 0.00 0.00 65 1013.1
20240519133627 66 204 18.0 18.0 0.00 0.00 0.00 66 1013.0
20240519133125 66 195 14.0 17.0 0.00 0.00 0.00 70 1013.0
20240519132624 66 174 9.0 16.0 0.00 0.00 0.00 72 1013.3
20240519132122 65 196 14.0 15.0 0.00 0.00 0.00 72 1012.9
20240519131620 65 190 9.0 17.0 0.00 0.00 0.00 73 1013.2
20240519131119 65 185 13.0 15.0 0.00 0.00 0.00 73 1012.8
20240519130617 65 159 11.0 14.0 0.00 0.00 0.00 76 1013.1
20240519130117 65 160 11.0 15.0 0.00 0.00 0.00 76 1012.9
20240519125616 65 157 18.0 19.0 0.00 0.00 0.00 74 1012.9
20240519125115 63 166 13.0 17.0 0.00 0.00 0.00 81 1012.9
20240519124613 63 153 15.0 18.0 0.00 0.00 0.00 82 1012.8
20240519124113 63 147 15.0 19.0 0.00 0.00 0.00 83 1012.8
20240519123611 62 158 14.0 16.0 0.00 0.00 0.00 87 1012.7
20240519123110 62 140 13.0 18.0 0.00 0.00 0.00 89 1012.6
20240519122608 62 163 11.0 15.0 0.00 0.00 0.00 91 1012.7
20240519122106 63 142 14.0 21.0 0.00 0.00 0.00 88 1012.7
20240519121606 61 144 13.0 18.0 0.00 0.00 0.00 94 1012.7
20240519121106 61 149 13.0 15.0 0.00 0.00 0.00 94 1012.6
20240519120604 61 152 14.0 16.0 0.00 0.00 0.00 94 1012.7
20240519120102 61 147 11.0 15.0 0.00 0.00 0.00 94 1012.7
20240519115601 61 131 11.0 22.0 0.00 0.00 0.00 94 1012.7
20240519115100 61 133 14.0 21.0 0.00 0.00 0.00 95 1012.7
20240519114558 61 133 13.0 16.0 0.00 0.00 0.00 95 1012.6
20240519114057 61 129 13.0 15.0 0.00 0.00 0.00 95 1012.7
20240519113556 60 152 10.0 12.0 0.00 0.00 0.00 95 1012.6
20240519113055 60 137 8.0 11.0 0.00 0.00 0.00 95 1012.6
20240519112554 60 138 9.0 11.0 0.00 0.00 0.00 95 1012.7
20240519112053 60 142 10.0 11.0 0.00 0.00 0.00 95 1012.7
20240519111551 61 145 9.0 15.0 0.00 0.00 0.00 95 1012.6
20240519111049 61 93 8.0 16.0 0.00 0.00 0.00 95 1012.3
20240519110548 61 117 7.0 11.0 0.00 0.00 0.00 95 1012.7
20240519110047 61 119 7.0 11.0 0.00 0.00 0.00 94 1012.6
20240519105546 61 137 8.0 8.0 0.00 0.00 0.00 94 1012.9
20240519105045 61 129 5.0 6.0 0.00 0.00 0.00 94 1012.6
20240519104543 61 124 6.0 10.0 0.00 0.00 0.00 93 1012.5
20240519104043 61 106 7.0 11.0 0.00 0.00 0.00 93 1012.5
20240519103542 62 133 10.0 13.0 0.00 0.00 0.00 94 1012.3
20240519103041 61 133 9.0 10.0 0.00 0.00 0.00 93 1012.6
20240519102540 61 121 5.0 10.0 0.00 0.00 0.00 93 1012.6
20240519102039 61 117 6.0 11.0 0.00 0.00 0.00 93 1012.7
20240519101537 62 110 4.0 8.0 0.00 0.00 0.00 93 1012.8
20240519101037 62 103 4.0 5.0 0.00 0.00 0.00 92 1012.7
20240519100536 62 91 8.0 9.0 0.00 0.00 0.00 92 1013.0
20240519100037 62 114 5.0 9.0 0.00 0.00 0.00 92 1013.0
20240519095536 62 103 4.0 8.0 0.00 0.00 0.00 92 1012.8
20240519095034 62 104 8.0 9.0 0.00 0.00 0.00 91 1012.8
20240519094532 62 105 6.0 10.0 0.00 0.00 0.00 91 1012.8
20240519094030 62 84 7.0 12.0 0.00 0.00 0.00 91 1012.8
20240519093529 62 106 7.0 12.0 0.00 0.00 0.00 91 1012.8
20240519093028 62 119 6.0 9.0 0.00 0.00 0.00 91 1012.8
20240519092527 63 122 7.0 10.0 0.00 0.00 0.00 90 1012.8
20240519092025 63 123 5.0 11.0 0.00 0.00 0.00 90 1012.9
20240519091525 63 144 12.0 13.0 0.00 0.00 0.00 90 1013.1
20240519091023 63 135 8.0 13.0 0.00 0.00 0.00 89 1013.0
20240519090521 63 131 5.0 14.0 0.00 0.00 0.00 89 1012.9
20240519090019 63 105 6.0 9.0 0.00 0.00 0.00 89 1013.0
20240519085518 63 119 4.0 10.0 0.00 0.00 0.00 88 1013.0
20240519085017 64 137 9.0 10.0 0.00 0.00 0.00 88 1013.0
20240519084515 64 124 5.0 11.0 0.00 0.00 0.00 88 1012.8
20240519084013 64 118 8.0 14.0 0.00 0.00 0.00 87 1013.1
20240519083513 64 124 10.0 13.0 0.00 0.00 0.00 87 1013.1
20240519083011 64 128 9.0 12.0 0.00 0.00 0.00 87 1012.8
20240519082510 64 128 8.0 12.0 0.00 0.00 0.00 86 1012.9
20240519082008 64 119 5.0 12.0 0.00 0.00 0.00 85 1012.9
20240519081508 65 125 11.0 15.0 0.00 0.00 0.00 85 1012.9
20240519081007 65 128 9.0 14.0 0.00 0.00 0.00 85 1013.0
20240519080505 65 125 8.0 13.0 0.00 0.00 0.00 84 1012.9
20240519080005 65 143 7.0 17.0 0.00 0.00 0.00 83 1013.1
20240519075503 65 142 10.0 17.0 0.00 0.00 0.00 83 1012.8
20240519075003 65 120 8.0 18.0 0.00 0.00 0.00 83 1012.9
20240519074502 65 127 7.0 16.0 0.00 0.00 0.00 82 1012.8
20240519074001 66 129 9.0 14.0 0.00 0.00 0.00 82 1012.8
20240519073459 66 122 8.0 13.0 0.00 0.00 0.00 81 1013.0
20240519072959 66 115 9.0 15.0 0.00 0.00 0.00 81 1013.1
20240519072458 66 113 6.0 13.0 0.00 0.00 0.00 80 1013.0
20240519071959 66 116 8.0 14.0 0.00 0.00 0.00 80 1013.2
20240519071458 66 127 9.0 14.0 0.00 0.00 0.00 79 1013.2
20240519070957 67 130 11.0 17.0 0.00 0.00 0.00 79 1013.3
20240519070455 67 141 5.0 14.0 0.00 0.00 0.00 78 1013.5
20240519065953 67 140 11.0 16.0 0.00 0.00 0.00 77 1013.3
20240519065452 67 123 4.0 14.0 0.00 0.00 0.00 77 1013.3
20240519064951 67 131 10.0 17.0 0.00 0.00 0.00 77 1013.2
20240519064450 67 121 9.0 16.0 0.00 0.00 0.00 77 1013.3
20240519063949 68 123 7.0 17.0 0.00 0.00 0.00 76 1013.5
20240519063449 68 126 10.0 15.0 0.00 0.00 0.00 76 1013.5
20240519062948 68 138 9.0 13.0 0.00 0.00 0.00 75 1013.7
20240519062447 69 124 9.0 12.0 0.00 0.00 0.00 74 1013.6
20240519061946 69 134 8.0 16.0 0.00 0.00 0.00 73 1013.5
20240519061444 69 128 12.0 15.0 0.00 0.00 0.00 72 1013.6
20240519060944 70 139 11.0 18.0 0.00 0.00 0.00 71 1013.5
20240519060443 71 132 15.0 21.0 0.00 0.00 0.00 70 1013.5
20240519055943 71 122 12.0 20.0 0.00 0.00 0.00 70 1013.6
20240519055443 71 122 7.0 19.0 0.00 0.00 0.00 69 1013.6
20240519054942 71 140 11.0 19.0 0.00 0.00 0.00 69 1013.3
20240519054441 71 128 10.0 19.0 0.00 0.00 0.00 69 1013.3